Gans, PA (15439)

1:00 PM EST on November 24, 2014 (GMT -0500)
Fairchance/Cheat Lake | Change Station
CLOSE
Current Station
Personal Weather Station
Location: Morgantown, WV
Elevation: 1080 ft
Nearby Weather Stations
Active Advisory: Wind Advisory Active Notice: Public Information Statement

Elev 1080 ft 39.72 °N, 79.81 °W | Updated 44 seconds ago

Partly Cloudy
Partly Cloudy
70.5 °F
Feels Like 77 °F
N
8.0
Wind Variable Wind from SW
Gusts 17.0 mph

Today
High -- | Low -- °F
--% Chance of Precip.
Yesterday
High -- | Low -- °F
Precip. -- in
7:13 AM 4:57 PM
Waxing Crescent, 6% visible
Pressure 29.46 in
Visibility 10.0 miles
Clouds Mostly Cloudy 8000 ft
Mostly Cloudy 9500 ft
Heat Index 77 °F
Dew Point 44 °F
Humidity 39%
Rainfall 0.00 in
Snow Depth Not available.
UV 2 out of 12
Pollen .10 out of 12
Air Quality Not available.
Flu Activity Not available.
METAR KMGW 241753Z 21014G23KT 10SM BKN080 BKN095 21/03 A2948 RMK AO2 PK WND 22032/1738 SLP974 T02110033 10217 20172 55007

More Conditions Fewer Conditions

Pressure 29.46 in
Visibility 10.0 miles
Clouds Mostly Cloudy 8000 ft
Mostly Cloudy 9500 ft
Heat Index 77 °F
Dew Point 44 °F
Humidity 39%
Rainfall 0.00 in
Snow Depth Not available.
UV 2 out of 12
Pollen .10 out of 12
Air Quality Not available.
Flu Activity Not available.
METAR KMGW 241753Z 21014G23KT 10SM BKN080 BKN095 21/03 A2948 RMK AO2 PK WND 22032/1738 SLP974 T02110033 10217 20172 55007

More Conditions Fewer Conditions

10-Day Weather Forecast

Almanac

Astronomy

Nov. 24, 2014 Rise Set
Actual Time
Civil Twilight
Nautical Twilight
Astronomical Twilight
Moon
Length of Visible Light
Length of Day
Tomorrow will be .
, % of the Moon is Illuminated

Today's Extremes

State Highs State Lows

Community

WunderPhotos

Upload Photos

1,773,379 photos uploaded!

WunderBlogs® & News

Nearby

Air Quality

  Air Quality AQ Index Pollutant
Not available.

Snow Depth

Station Depth Elevation

Earthquake Activity

City Distance Mag. Time & Date
Minimum magnitude displayed is 2.5.

Coastal Water Temperatures

Place Temperature

Nearby Weather Stations